createdAt,value
2023-02-14T00:02:12.237Z,100378.00
2023-02-14T00:04:43.571Z,100373.42
2023-02-14T00:07:13.668Z,100376.73
2023-02-14T00:09:41.213Z,100369.00
2023-02-14T00:12:11.131Z,100368.16
2023-02-14T00:14:57.016Z,100368.27
2023-02-14T00:17:24.159Z,100367.84
2023-02-14T00:19:51.295Z,100364.98
2023-02-14T00:22:43.652Z,100366.60
2023-02-14T00:25:11.818Z,100359.11
2023-02-14T00:27:42.118Z,100355.11
2023-02-14T00:30:11.767Z,100353.80
2023-02-14T00:32:39.898Z,100347.41
2023-02-14T00:35:14.021Z,100343.27
2023-02-14T00:37:45.542Z,100337.38
2023-02-14T00:40:12.637Z,100338.45
2023-02-14T00:42:40.020Z,100339.73
2023-02-14T00:45:08.500Z,100335.75
2023-02-14T00:47:40.185Z,100323.77
2023-02-14T00:50:19.119Z,100310.73
2023-02-14T00:52:48.666Z,100311.25
2023-02-14T00:55:18.212Z,100312.84
2023-02-14T00:58:23.371Z,100311.91
2023-02-14T01:00:54.773Z,100318.62
2023-02-14T01:03:28.430Z,100311.98
2023-02-14T01:06:00.408Z,100312.42
2023-02-14T01:08:31.971Z,100310.64
2023-02-14T01:11:08.281Z,100305.36
2023-02-14T01:13:37.035Z,100304.96
2023-02-14T01:16:06.320Z,100303.13
2023-02-14T01:18:33.346Z,100303.20
2023-02-14T01:21:19.796Z,100303.34
2023-02-14T01:23:49.291Z,100307.84
2023-02-14T01:26:18.372Z,100307.98
2023-02-14T01:28:45.704Z,100304.61
2023-02-14T01:31:23.963Z,100299.61
2023-02-14T01:33:51.383Z,100305.30
2023-02-14T01:37:10.721Z,100296.23
2023-02-14T01:39:38.332Z,100296.22
2023-02-14T01:42:05.369Z,100293.64
2023-02-14T01:44:33.815Z,100291.53
2023-02-14T01:47:02.584Z,100289.48
2023-02-14T01:49:32.873Z,100285.84
2023-02-14T01:52:30.477Z,100282.56
2023-02-14T01:55:31.031Z,100275.34
2023-02-14T01:58:13.228Z,100265.20
2023-02-14T02:00:56.451Z,100263.91
2023-02-14T02:03:49.873Z,100262.45
2023-02-14T02:06:35.491Z,100260.73
2023-02-14T02:09:17.622Z,100261.66
2023-02-14T02:11:44.597Z,100262.58
2023-02-14T02:14:17.975Z,100258.63
2023-02-14T02:16:50.846Z,100257.95
2023-02-14T02:19:35.832Z,100253.75
2023-02-14T02:22:38.323Z,100250.98
2023-02-14T02:25:33.915Z,100246.41
2023-02-14T02:28:04.214Z,100243.40
2023-02-14T02:30:50.176Z,100237.65
2023-02-14T02:33:45.478Z,100234.20
2023-02-14T02:36:12.348Z,100236.68
2023-02-14T02:39:09.662Z,100234.25
2023-02-14T02:41:45.471Z,100230.52
2023-02-14T02:44:26.160Z,100233.32
2023-02-14T02:47:38.082Z,100230.42
2023-02-14T02:51:03.835Z,100226.95
2023-02-14T02:53:48.228Z,100228.75
2023-02-14T02:56:49.167Z,100223.99
2023-02-14T02:59:31.440Z,100218.49
2023-02-14T03:02:07.578Z,100209.98
2023-02-14T03:04:54.427Z,100200.56
2023-02-14T03:07:35.364Z,100186.96
2023-02-14T03:10:12.794Z,100194.17
2023-02-14T03:12:57.011Z,100188.30
2023-02-14T03:15:26.931Z,100179.25
2023-02-14T03:18:27.827Z,100176.21
2023-02-14T03:21:20.596Z,100157.64
2023-02-14T03:24:02.696Z,100160.43
2023-02-14T03:26:42.076Z,100166.00
2023-02-14T03:29:12.067Z,100156.39
2023-02-14T03:31:54.737Z,100145.84
2023-02-14T03:34:35.636Z,100148.96
2023-02-14T03:37:11.200Z,100144.73
2023-02-14T03:39:47.690Z,100141.72
2023-02-14T03:42:52.162Z,100135.59
2023-02-14T03:45:33.704Z,100134.50
2023-02-14T03:48:06.363Z,100141.05
2023-02-14T03:50:33.295Z,100144.42
2023-02-14T03:53:00.130Z,100154.70
2023-02-14T03:55:32.175Z,100164.87
2023-02-14T03:58:06.596Z,100170.20
2023-02-14T04:00:33.786Z,100178.47
2023-02-14T04:03:02.964Z,100193.67
2023-02-14T04:05:30.238Z,100198.54
2023-02-14T04:07:58.125Z,100205.41
2023-02-14T04:10:25.229Z,100202.91
2023-02-14T04:12:55.044Z,100211.92
2023-02-14T04:15:22.187Z,100213.88
2023-02-14T04:18:08.311Z,100215.91
2023-02-14T04:20:36.747Z,100215.15
2023-02-14T04:23:04.151Z,100221.83
2023-02-14T04:25:31.403Z,100217.06
2023-02-14T04:27:58.515Z,100216.53
2023-02-14T04:30:25.636Z,100213.70
2023-02-14T04:32:52.581Z,100219.35
2023-02-14T04:35:20.030Z,100206.69
2023-02-14T04:37:47.003Z,100202.85
2023-02-14T04:40:17.039Z,100197.24
2023-02-14T04:42:45.003Z,100197.41
2023-02-14T04:45:11.943Z,100201.23
2023-02-14T04:47:39.182Z,100204.85
2023-02-14T04:50:07.366Z,100202.73
2023-02-14T04:52:34.409Z,100200.33
2023-02-14T04:55:01.452Z,100205.41
2023-02-14T04:57:28.718Z,100207.27
2023-02-14T04:59:55.728Z,100203.52
2023-02-14T05:02:23.080Z,100197.62
2023-02-14T05:04:50.703Z,100204.36
2023-02-14T05:07:17.634Z,100206.22
2023-02-14T05:09:45.339Z,100214.43
2023-02-14T05:12:12.656Z,100211.38
2023-02-14T05:14:39.488Z,100211.92
2023-02-14T05:17:07.574Z,100214.41
2023-02-14T05:19:34.612Z,100220.02
2023-02-14T05:22:01.659Z,100221.90
2023-02-14T05:24:28.593Z,100226.20
2023-02-14T05:26:58.601Z,100222.17
2023-02-14T05:29:25.770Z,100222.11
2023-02-14T05:31:52.979Z,100220.52
2023-02-14T05:34:21.751Z,100226.02
2023-02-14T05:36:48.788Z,100224.44
2023-02-14T05:39:15.804Z,100228.98
2023-02-14T05:41:42.630Z,100230.87
2023-02-14T05:44:09.534Z,100235.77
2023-02-14T05:46:37.424Z,100238.34
2023-02-14T05:49:04.216Z,100235.55
2023-02-14T05:51:31.545Z,100236.67
2023-02-14T05:54:00.930Z,100237.27
2023-02-14T05:56:27.964Z,100239.64
2023-02-14T05:58:54.835Z,100239.68
2023-02-14T06:01:22.332Z,100237.55
2023-02-14T06:03:49.207Z,100239.90
2023-02-14T06:06:16.269Z,100240.50
2023-02-14T06:08:44.461Z,100241.12
2023-02-14T06:11:11.313Z,100247.33
2023-02-14T06:13:40.913Z,100247.08
2023-02-14T06:16:08.032Z,100239.72
2023-02-14T06:18:34.911Z,100240.91
2023-02-14T06:21:02.504Z,100237.39
2023-02-14T06:23:30.170Z,100234.15
2023-02-14T06:25:57.308Z,100233.77
2023-02-14T06:28:24.362Z,100236.59
2023-02-14T06:30:52.649Z,100241.48
2023-02-14T06:33:20.159Z,100236.71
2023-02-14T06:36:12.606Z,100245.43
2023-02-14T06:38:40.709Z,100250.19
2023-02-14T06:41:33.821Z,100260.11
2023-02-14T06:44:02.829Z,100260.23
2023-02-14T06:46:29.682Z,100257.59
2023-02-14T06:48:57.213Z,100261.54
2023-02-14T06:51:25.353Z,100264.30
2023-02-14T06:53:52.403Z,100265.96
2023-02-14T06:56:19.284Z,100259.16
2023-02-14T06:58:46.115Z,100256.83
2023-02-14T07:01:13.254Z,100257.09
2023-02-14T07:03:40.256Z,100260.63
2023-02-14T07:06:07.297Z,100262.95
2023-02-14T07:08:34.423Z,100265.20
2023-02-14T07:11:01.839Z,100260.74
2023-02-14T07:13:29.337Z,100264.45
2023-02-14T07:15:57.579Z,100264.39
2023-02-14T07:18:24.496Z,100270.10
2023-02-14T07:20:54.175Z,100269.12
2023-02-14T07:23:21.536Z,100275.17
2023-02-14T07:25:48.544Z,100270.33
2023-02-14T07:28:17.268Z,100276.59
2023-02-14T07:30:44.196Z,100276.35
2023-02-14T07:33:11.654Z,100277.89
2023-02-14T07:35:39.811Z,100273.27
2023-02-14T07:38:08.289Z,100274.70
2023-02-14T07:40:36.172Z,100279.30
2023-02-14T07:43:03.054Z,100281.45
2023-02-14T07:45:30.231Z,100282.56
2023-02-14T07:48:01.357Z,100287.21
2023-02-14T07:50:28.918Z,100284.59
2023-02-14T07:52:56.083Z,100277.29
2023-02-14T07:55:24.584Z,100286.40
2023-02-14T07:57:51.884Z,100279.09
2023-02-14T08:00:19.634Z,100280.51
2023-02-14T08:02:46.853Z,100278.30
2023-02-14T08:05:14.193Z,100273.36
2023-02-14T08:07:42.585Z,100279.38
2023-02-14T08:10:11.438Z,100283.77
2023-02-14T08:12:59.667Z,100284.21
2023-02-14T08:15:50.370Z,100283.64
2023-02-14T08:18:17.759Z,100290.09
2023-02-14T08:20:45.761Z,100287.14
2023-02-14T08:23:12.599Z,100284.48
2023-02-14T08:25:39.967Z,100284.45
2023-02-14T08:28:07.517Z,100278.98
2023-02-14T08:30:37.605Z,100291.17
2023-02-14T08:33:05.050Z,100286.52
2023-02-14T08:35:33.661Z,100293.30
2023-02-14T08:38:00.565Z,100294.20
2023-02-14T08:40:27.977Z,100297.36
2023-02-14T08:42:55.206Z,100299.65
2023-02-14T08:45:22.413Z,100291.78
2023-02-14T08:47:49.879Z,100290.85
2023-02-14T08:50:18.526Z,100292.17
2023-02-14T08:52:46.692Z,100288.41
2023-02-14T08:55:13.841Z,100292.19
2023-02-14T08:57:42.732Z,100286.59
2023-02-14T09:00:10.640Z,100287.41
2023-02-14T09:02:39.325Z,100289.95
2023-02-14T09:05:08.689Z,100291.62
2023-02-14T09:07:36.218Z,100304.83
2023-02-14T09:10:07.401Z,100298.27
2023-02-14T09:12:34.743Z,100299.80
2023-02-14T09:15:01.716Z,100307.40
2023-02-14T09:17:30.280Z,100300.11
2023-02-14T09:19:57.795Z,100310.38
2023-02-14T09:22:25.359Z,100310.46
2023-02-14T09:24:52.167Z,100310.65
2023-02-14T09:27:19.066Z,100302.11
2023-02-14T09:29:46.101Z,100307.02
2023-02-14T09:32:14.922Z,100310.92
2023-02-14T09:34:43.136Z,100308.73
2023-02-14T09:37:10.844Z,100309.18
2023-02-14T09:39:38.409Z,100307.70
2023-02-14T09:42:47.279Z,100310.06
2023-02-14T09:45:16.397Z,100307.52
2023-02-14T09:47:59.935Z,100310.16
2023-02-14T09:50:29.328Z,100303.81
2023-02-14T09:53:19.318Z,100306.02
2023-02-14T09:56:08.313Z,100309.92
2023-02-14T09:58:43.848Z,100303.88
2023-02-14T10:01:16.953Z,100311.23
2023-02-14T10:04:19.139Z,100310.33
2023-02-14T10:07:12.694Z,100300.84
2023-02-14T10:10:40.422Z,100293.27
2023-02-14T10:13:46.238Z,100281.75
2023-02-14T10:16:55.727Z,100275.60
2023-02-14T10:19:26.232Z,100266.90
2023-02-14T10:21:54.980Z,100264.09
2023-02-14T10:24:45.728Z,100261.74
2023-02-14T10:27:24.208Z,100259.73
2023-02-14T10:29:51.217Z,100259.39
2023-02-14T10:32:21.705Z,100259.83
2023-02-14T10:34:50.045Z,100260.02
2023-02-14T10:37:54.465Z,100251.86
2023-02-14T10:41:03.710Z,100265.70
2023-02-14T10:43:33.506Z,100260.66
2023-02-14T10:46:30.158Z,100266.52
2023-02-14T10:49:36.276Z,100273.02
2023-02-14T10:52:15.004Z,100270.17
2023-02-14T10:54:45.019Z,100270.56
2023-02-14T10:57:18.136Z,100278.98
2023-02-14T11:00:06.060Z,100278.38
2023-02-14T11:02:39.562Z,100283.46
2023-02-14T11:05:06.870Z,100280.48
2023-02-14T11:07:34.197Z,100278.14
2023-02-14T11:10:11.564Z,100286.84
2023-02-14T11:12:41.608Z,100279.29
2023-02-14T11:15:22.128Z,100281.41
2023-02-14T11:17:49.094Z,100293.02
2023-02-14T11:20:22.161Z,100281.31
2023-02-14T11:22:50.525Z,100282.08
2023-02-14T11:25:19.686Z,100274.69
2023-02-14T11:27:49.498Z,100269.13
2023-02-14T11:30:25.592Z,100263.70
2023-02-14T11:32:55.469Z,100270.73
2023-02-14T11:35:26.445Z,100266.26
2023-02-14T11:37:55.042Z,100266.26
2023-02-14T11:40:36.173Z,100270.14
2023-02-14T11:43:15.299Z,100269.27
2023-02-14T11:45:43.769Z,100270.58
2023-02-14T11:48:36.651Z,100273.21
2023-02-14T11:51:08.325Z,100269.04
2023-02-14T11:53:53.348Z,100265.85
2023-02-14T11:56:20.707Z,100264.80
2023-02-14T11:58:51.886Z,100263.98
2023-02-14T12:01:32.344Z,100279.52
2023-02-14T12:04:15.128Z,100287.90
2023-02-14T12:06:45.120Z,100278.48
2023-02-14T12:09:22.352Z,100279.05
2023-02-14T12:25:06.951Z,100272.52
2023-02-14T12:28:12.700Z,100276.35
2023-02-14T12:30:39.613Z,100276.98
2023-02-14T12:33:25.563Z,100283.39
2023-02-14T12:36:17.353Z,100279.64
2023-02-14T12:39:11.073Z,100274.88
2023-02-14T12:41:44.304Z,100270.89
2023-02-14T12:44:29.596Z,100269.98
2023-02-14T12:47:25.038Z,100264.12
2023-02-14T12:50:43.327Z,100273.25
2023-02-14T12:53:30.453Z,100280.43
2023-02-14T12:56:40.054Z,100278.04
2023-02-14T12:59:26.040Z,100275.34
2023-02-14T13:02:23.178Z,100279.27
2023-02-14T13:05:20.185Z,100283.07
2023-02-14T13:08:12.568Z,100281.52
2023-02-14T13:10:56.115Z,100285.09
2023-02-14T13:13:32.347Z,100289.21
2023-02-14T13:16:23.788Z,100291.24
2023-02-14T13:18:53.829Z,100289.13
2023-02-14T13:21:25.348Z,100294.14
2023-02-14T13:24:21.403Z,100305.07
2023-02-14T13:26:53.238Z,100302.39
2023-02-14T13:29:25.096Z,100300.05
2023-02-14T13:31:56.226Z,100298.54
2023-02-14T13:34:26.304Z,100301.73
2023-02-14T13:36:54.668Z,100296.63
2023-02-14T13:39:34.293Z,100302.09
2023-02-14T13:42:05.435Z,100299.99
2023-02-14T13:44:44.697Z,100304.48
2023-02-14T13:47:22.353Z,100306.26
2023-02-14T13:50:00.180Z,100307.80
2023-02-14T13:52:45.856Z,100301.21
2023-02-14T13:55:23.973Z,100306.51
2023-02-14T13:58:07.561Z,100305.17
2023-02-14T14:00:38.999Z,100316.24
2023-02-14T14:03:06.920Z,100315.55
2023-02-14T14:05:47.048Z,100310.04
2023-02-14T14:08:20.056Z,100313.62
2023-02-14T14:11:04.940Z,100318.55
2023-02-14T14:13:41.434Z,100324.88
2023-02-14T14:16:27.207Z,100326.23
2023-02-14T14:19:26.606Z,100334.16
2023-02-14T14:22:01.516Z,100334.04
2023-02-14T14:24:32.725Z,100333.77
2023-02-14T14:26:59.697Z,100335.02
2023-02-14T14:29:49.685Z,100339.01
2023-02-14T14:32:29.301Z,100339.44
2023-02-14T14:35:00.943Z,100335.29
2023-02-14T14:37:32.769Z,100342.77
2023-02-14T14:40:02.467Z,100341.83
2023-02-14T14:42:34.300Z,100340.89
2023-02-14T14:45:07.949Z,100350.47
2023-02-14T14:47:43.816Z,100346.40
2023-02-14T14:50:27.836Z,100341.86
2023-02-14T14:53:02.056Z,100357.60
2023-02-14T14:55:32.524Z,100359.77
2023-02-14T14:58:03.250Z,100359.27
2023-02-14T15:00:32.909Z,100358.90
2023-02-14T15:03:12.892Z,100357.73
2023-02-14T15:05:42.007Z,100362.80
2023-02-14T15:08:27.300Z,100368.72
2023-02-14T15:11:11.485Z,100371.20
2023-02-14T15:13:48.864Z,100369.17
2023-02-14T15:16:28.268Z,100377.00
2023-02-14T15:18:58.321Z,100376.47
2023-02-14T15:21:25.721Z,100382.75
2023-02-14T15:23:54.726Z,100384.52
2023-02-14T15:26:28.060Z,100385.76
2023-02-14T15:28:56.963Z,100390.38
2023-02-14T15:31:32.849Z,100396.44
2023-02-14T15:34:00.876Z,100399.73
2023-02-14T15:36:28.275Z,100402.48
2023-02-14T15:38:56.163Z,100411.02
2023-02-14T15:41:24.178Z,100409.77
2023-02-14T15:43:54.008Z,100415.14
2023-02-14T15:46:24.233Z,100417.95
2023-02-14T15:48:51.473Z,100427.77
2023-02-14T15:51:23.908Z,100423.82
2023-02-14T15:53:50.939Z,100428.27
2023-02-14T15:56:24.566Z,100430.28
2023-02-14T15:59:11.708Z,100433.04
2023-02-14T16:01:38.962Z,100438.56
2023-02-14T16:04:06.342Z,100429.46
2023-02-14T16:06:43.889Z,100447.81
2023-02-14T16:09:33.620Z,100447.81
2023-02-14T16:12:13.615Z,100459.30
2023-02-14T16:14:44.432Z,100465.34
2023-02-14T16:17:13.760Z,100460.29
2023-02-14T16:19:42.840Z,100465.98
2023-02-14T16:22:31.593Z,100470.45
2023-02-14T16:24:58.849Z,100469.83
2023-02-14T16:27:25.825Z,100473.27
2023-02-14T16:29:53.031Z,100482.73
2023-02-14T16:32:21.432Z,100484.16
2023-02-14T16:34:48.574Z,100487.06
2023-02-14T16:37:42.821Z,100487.58
2023-02-14T16:40:14.146Z,100490.21
2023-02-14T16:42:41.126Z,100493.45
2023-02-14T16:45:15.337Z,100494.23
2023-02-14T16:47:42.825Z,100492.48
2023-02-14T16:50:10.882Z,100497.49
2023-02-14T16:52:37.965Z,100498.75
2023-02-14T16:55:06.238Z,100503.52
2023-02-14T16:57:37.084Z,100500.02
2023-02-14T17:00:05.940Z,100505.41
2023-02-14T17:02:33.445Z,100509.56
2023-02-14T17:05:00.333Z,100511.18
2023-02-14T17:07:28.651Z,100510.05
2023-02-14T17:09:58.804Z,100516.94
2023-02-14T17:12:29.215Z,100517.00
2023-02-14T17:14:59.522Z,100523.40
2023-02-14T17:17:26.574Z,100527.27
2023-02-14T17:19:53.507Z,100525.85
2023-02-14T17:22:20.472Z,100527.27
2023-02-14T17:24:47.239Z,100529.69
2023-02-14T17:27:14.301Z,100533.37
2023-02-14T17:29:41.294Z,100538.91
2023-02-14T17:32:13.111Z,100538.53
2023-02-14T17:34:40.375Z,100542.17
2023-02-14T17:37:07.338Z,100547.71
2023-02-14T17:39:35.008Z,100546.46
2023-02-14T17:42:01.819Z,100547.11
2023-02-14T17:44:31.845Z,100548.35
2023-02-14T17:46:59.398Z,100557.02
2023-02-14T17:49:26.793Z,100559.89
2023-02-14T17:51:55.759Z,100558.75
2023-02-14T17:54:23.310Z,100560.88
2023-02-14T17:56:50.140Z,100552.46
2023-02-14T17:59:17.224Z,100559.45
2023-02-14T18:01:44.613Z,100557.29
2023-02-14T18:04:12.029Z,100567.94
2023-02-14T18:06:39.652Z,100556.83
2023-02-14T18:09:07.466Z,100563.32
2023-02-14T18:11:34.719Z,100568.77
2023-02-14T18:14:03.149Z,100563.27
2023-02-14T18:16:30.217Z,100558.49
2023-02-14T18:18:57.596Z,100564.11
2023-02-14T18:21:24.992Z,100560.52
2023-02-14T18:23:53.846Z,100566.45
2023-02-14T18:26:21.402Z,100567.56
2023-02-14T18:28:50.478Z,100566.46
2023-02-14T18:31:18.103Z,100572.46
2023-02-14T18:33:46.395Z,100574.66
2023-02-14T18:36:15.251Z,100575.08
2023-02-14T18:38:43.738Z,100583.27
2023-02-14T18:41:12.498Z,100589.30
2023-02-14T18:43:42.498Z,100596.30
2023-02-14T18:46:18.630Z,100597.88
2023-02-14T18:48:45.402Z,100596.02
2023-02-14T18:51:14.839Z,100592.34
2023-02-14T18:53:43.548Z,100596.16
2023-02-14T18:56:15.016Z,100600.04
2023-02-14T18:58:43.860Z,100604.79
2023-02-14T19:01:16.773Z,100604.42
2023-02-14T19:03:44.245Z,100603.36
2023-02-14T19:06:12.225Z,100606.75
2023-02-14T19:08:39.738Z,100605.09
2023-02-14T19:11:16.397Z,100604.30
2023-02-14T19:13:48.825Z,100613.85
2023-02-14T19:16:20.508Z,100607.41
2023-02-14T19:18:49.925Z,100615.73
2023-02-14T19:21:19.616Z,100616.79
2023-02-14T19:23:46.835Z,100616.39
2023-02-14T19:26:13.943Z,100619.16
2023-02-14T19:28:42.222Z,100627.84
2023-02-14T19:31:09.725Z,100631.31
2023-02-14T19:33:41.200Z,100633.14
2023-02-14T19:36:12.011Z,100639.23
2023-02-14T19:38:45.186Z,100643.02
2023-02-14T19:41:26.520Z,100635.23
2023-02-14T19:43:57.469Z,100649.14
2023-02-14T19:46:25.064Z,100646.05
2023-02-14T19:48:52.347Z,100644.23
2023-02-14T19:51:31.379Z,100645.60
2023-02-14T19:53:59.637Z,100649.05
2023-02-14T19:56:31.781Z,100657.34
2023-02-14T19:58:59.317Z,100655.77
2023-02-14T20:01:40.762Z,100658.86
2023-02-14T20:04:14.034Z,100660.64
2023-02-14T20:06:42.397Z,100663.23
2023-02-14T20:09:10.221Z,100663.39
2023-02-14T20:11:54.168Z,100663.43
2023-02-14T20:14:25.478Z,100660.67
2023-02-14T20:16:57.891Z,100657.23
2023-02-14T20:19:29.155Z,100667.05
2023-02-14T20:21:56.312Z,100666.29
2023-02-14T20:24:25.570Z,100674.01
2023-02-14T20:26:52.347Z,100683.31
2023-02-14T20:29:20.420Z,100680.04
2023-02-14T20:31:49.448Z,100690.81
2023-02-14T20:34:16.403Z,100686.54
2023-02-14T20:36:43.994Z,100685.77
2023-02-14T20:39:11.715Z,100687.70
2023-02-14T20:41:38.851Z,100695.09
2023-02-14T20:44:10.429Z,100698.73
2023-02-14T20:46:38.399Z,100698.41
2023-02-14T20:49:05.457Z,100701.41
2023-02-14T20:51:34.300Z,100704.41
2023-02-14T20:54:03.295Z,100703.02
2023-02-14T20:56:30.503Z,100706.49
2023-02-14T20:59:01.683Z,100705.06
2023-02-14T21:01:29.350Z,100708.41
2023-02-14T21:03:57.444Z,100713.10
2023-02-14T21:06:26.644Z,100711.43
2023-02-14T21:08:54.904Z,100718.29
2023-02-14T21:11:23.744Z,100717.41
2023-02-14T21:13:59.644Z,100725.02
2023-02-14T21:16:27.588Z,100728.37
2023-02-14T21:18:58.716Z,100731.11
2023-02-14T21:21:36.113Z,100736.06
2023-02-14T21:24:06.627Z,100737.47
2023-02-14T21:26:33.892Z,100734.85
2023-02-14T21:29:01.322Z,100741.91
2023-02-14T21:31:29.888Z,100749.23
2023-02-14T21:33:58.895Z,100747.11
2023-02-14T21:36:27.405Z,100750.44
2023-02-14T21:38:55.022Z,100751.58
2023-02-14T21:41:23.095Z,100751.20
2023-02-14T21:43:55.725Z,100755.13
2023-02-14T21:46:28.665Z,100754.73
2023-02-14T21:49:18.187Z,100750.08
2023-02-14T21:51:45.970Z,100759.00
2023-02-14T21:54:13.411Z,100761.58
2023-02-14T21:56:40.940Z,100757.71
2023-02-14T21:59:09.151Z,100760.09
2023-02-14T22:01:37.818Z,100765.30
2023-02-14T22:04:07.269Z,100765.36
2023-02-14T22:06:36.740Z,100770.67
2023-02-14T22:09:03.776Z,100773.69
2023-02-14T22:11:31.463Z,100775.41
2023-02-14T22:13:58.883Z,100777.08
2023-02-14T22:16:26.477Z,100778.17
2023-02-14T22:18:53.311Z,100778.57
2023-02-14T22:21:22.128Z,100783.95
2023-02-14T22:23:49.548Z,100783.59
2023-02-14T22:26:23.137Z,100781.23
2023-02-14T22:28:57.024Z,100780.25
2023-02-14T22:31:24.877Z,100779.44
2023-02-14T22:33:51.909Z,100780.21
2023-02-14T22:36:19.018Z,100784.80
2023-02-14T22:38:46.149Z,100781.48
2023-02-14T22:41:14.709Z,100785.45
2023-02-14T22:43:41.731Z,100783.44
2023-02-14T22:46:14.286Z,100782.55
2023-02-14T22:48:41.400Z,100781.81
2023-02-14T22:51:37.662Z,100780.25
2023-02-14T22:54:15.355Z,100781.67
2023-02-14T22:56:46.751Z,100787.14
2023-02-14T22:59:19.026Z,100787.39
2023-02-14T23:01:46.689Z,100788.63
2023-02-14T23:04:18.141Z,100791.27
2023-02-14T23:06:47.546Z,100791.23
2023-02-14T23:09:15.488Z,100792.81
2023-02-14T23:11:43.217Z,100793.58
2023-02-14T23:14:32.636Z,100797.30
2023-02-14T23:17:18.020Z,100796.08
2023-02-14T23:20:05.473Z,100794.14
2023-02-14T23:22:34.728Z,100795.89
2023-02-14T23:25:02.896Z,100797.64
2023-02-14T23:27:40.117Z,100799.59
2023-02-14T23:30:08.774Z,100800.29
2023-02-14T23:32:35.831Z,100803.73
2023-02-14T23:35:02.572Z,100804.33
2023-02-14T23:37:29.750Z,100810.66
2023-02-14T23:39:57.874Z,100812.95
2023-02-14T23:42:24.666Z,100820.15
2023-02-14T23:44:51.638Z,100812.66
2023-02-14T23:47:18.714Z,100817.96
2023-02-14T23:49:45.739Z,100823.34
2023-02-14T23:52:13.000Z,100818.95
2023-02-14T23:54:39.929Z,100825.49
2023-02-14T23:57:07.457Z,100823.40
2023-02-14T23:59:34.513Z,100831.23
